Time;durP1;ratioP1;P1;durP2;ratioP2;P2;SDS_P1;SDS_P2;PMS_P1;PMS_P2;Temp;Humidity;BMP_temperature;BMP_pressure;BME280_temperature;BME280_humidity;BME280_pressure;Samples;Min_cycle;Max_cycle;Signal;HPM_P1;HPM_P2
2022/11/17 00:01:39;;;;;;;5.15;2.00;;;;;;;;;;4986427;28;20042;-61
2022/11/17 00:04:04;;;;;;;3.92;1.98;;;;;;;;;;4985363;28;20495;-62
2022/11/17 00:06:29;;;;;;;4.35;2.00;;;;;;;;;;4986518;28;20046;-63
2022/11/17 00:08:55;;;;;;;8.25;2.38;;;;;;;;;;4974757;28;20027;-61
2022/11/17 00:11:20;;;;;;;3.20;2.08;;;;;;;;;;4985005;28;20045;-63
2022/11/17 00:16:29;;;;;;;7.47;1.98;;;;;;;;;;4979730;28;20053;-62
2022/11/17 00:21:38;;;;;;;3.42;1.92;;;;;;;;;;4981567;28;20236;-62
2022/11/17 00:24:04;;;;;;;6.97;2.10;;;;;;;;;;4989141;28;20117;-63
2022/11/17 00:26:32;;;;;;;5.57;2.13;;;;;;;;;;4988103;28;20042;-62
2022/11/17 00:29:00;;;;;;;6.07;2.30;;;;;;;;;;4990295;28;20035;-62
2022/11/17 00:34:22;;;;;;;6.28;2.10;;;;;;;;;;4976363;28;20038;-63
2022/11/17 00:36:49;;;;;;;5.13;2.28;;;;;;;;;;4986650;28;20053;-62
2022/11/17 00:39:17;;;;;;;4.93;2.10;;;;;;;;;;4978645;28;20085;-62
2022/11/17 00:41:42;;;;;;;6.30;2.50;;;;;;;;;;4990948;28;20033;-62
2022/11/17 00:44:08;;;;;;;5.88;2.35;;;;;;;;;;4986164;28;20411;-62
2022/11/17 00:46:36;;;;;;;6.35;2.72;;;;;;;;;;4972605;28;20022;-62
2022/11/17 00:49:01;;;;;;;7.15;2.40;;;;;;;;;;4984959;28;20034;-62
2022/11/17 00:51:27;;;;;;;6.80;2.60;;;;;;;;;;4974479;28;20046;-62
2022/11/17 00:53:52;;;;;;;7.18;2.45;;;;;;;;;;4979385;28;20038;-63
2022/11/17 00:56:18;;;;;;;5.43;2.33;;;;;;;;;;4973327;28;20042;-63
2022/11/17 00:58:43;;;;;;;8.23;2.70;;;;;;;;;;4981125;28;20217;-63
2022/11/17 01:01:09;;;;;;;7.32;2.47;;;;;;;;;;4982196;28;20034;-62
2022/11/17 01:03:35;;;;;;;6.40;2.50;;;;;;;;;;4977061;28;20542;-63
2022/11/17 01:06:09;;;;;;;6.82;2.25;;;;;;;;;;4987532;28;20026;-63
2022/11/17 01:08:35;;;;;;;5.55;2.33;;;;;;;;;;4989700;28;20046;-63
2022/11/17 01:11:05;;;;;;;5.57;2.70;;;;;;;;;;4988380;28;20116;-62
2022/11/17 01:13:30;;;;;;;5.43;2.65;;;;;;;;;;4988298;28;20161;-63
2022/11/17 01:16:01;;;;;;;6.95;2.30;;;;;;;;;;4985279;28;20117;-64
2022/11/17 01:18:27;;;;;;;7.60;2.50;;;;;;;;;;5008998;28;20499;-63
2022/11/17 01:20:52;;;;;;;4.93;2.10;;;;;;;;;;4972575;28;20121;-63
2022/11/17 01:23:17;;;;;;;6.97;2.55;;;;;;;;;;4976557;28;20038;-62
2022/11/17 01:25:43;;;;;;;5.45;2.47;;;;;;;;;;4990436;28;20034;-64
2022/11/17 01:28:08;;;;;;;5.72;2.25;;;;;;;;;;4985923;28;20030;-62
2022/11/17 01:30:33;;;;;;;4.65;2.10;;;;;;;;;;4975704;28;20098;-62
2022/11/17 01:32:59;;;;;;;5.15;2.10;;;;;;;;;;4979326;28;20157;-62
2022/11/17 01:35:24;;;;;;;7.97;2.42;;;;;;;;;;4987146;28;20088;-62
2022/11/17 01:37:49;;;;;;;6.35;2.35;;;;;;;;;;4989878;28;20093;-62
2022/11/17 01:40:15;;;;;;;8.50;2.72;;;;;;;;;;5022969;28;20030;-63
2022/11/17 01:42:40;;;;;;;7.07;2.60;;;;;;;;;;4991720;28;20038;-63
2022/11/17 01:45:18;;;;;;;8.20;2.42;;;;;;;;;;4984044;28;20043;-63
2022/11/17 01:47:46;;;;;;;6.43;2.40;;;;;;;;;;5012644;28;20026;-63
2022/11/17 01:50:34;;;;;;;5.78;2.30;;;;;;;;;;4992706;28;20034;-62
2022/11/17 01:53:03;;;;;;;4.90;2.20;;;;;;;;;;4976919;28;20062;-63
2022/11/17 01:55:51;;;;;;;6.43;2.63;;;;;;;;;;4979099;28;20046;-62
2022/11/17 01:58:28;;;;;;;7.45;2.60;;;;;;;;;;4992113;28;20101;-62
2022/11/17 02:00:54;;;;;;;8.98;2.75;;;;;;;;;;4990567;28;20030;-64
2022/11/17 02:03:20;;;;;;;7.53;2.85;;;;;;;;;;4972753;28;20428;-64
2022/11/17 02:05:59;;;;;;;6.38;2.70;;;;;;;;;;4978320;28;20110;-65
2022/11/17 02:08:29;;;;;;;5.25;2.60;;;;;;;;;;4990487;28;20041;-65
2022/11/17 02:10:54;;;;;;;6.67;2.90;;;;;;;;;;4987360;28;20034;-65
2022/11/17 02:13:21;;;;;;;5.60;2.58;;;;;;;;;;4990847;28;20035;-64
2022/11/17 02:15:46;;;;;;;5.55;2.50;;;;;;;;;;4991385;28;20039;-65
2022/11/17 02:18:12;;;;;;;7.53;2.65;;;;;;;;;;4989296;28;20107;-65
2022/11/17 02:20:38;;;;;;;6.32;2.30;;;;;;;;;;4974495;28;20040;-66
2022/11/17 02:23:28;;;;;;;7.13;2.35;;;;;;;;;;4972056;28;20038;-66
2022/11/17 02:26:05;;;;;;;5.97;2.53;;;;;;;;;;4977759;28;20038;-67
2022/11/17 02:28:34;;;;;;;5.97;2.40;;;;;;;;;;4991059;28;20073;-66
2022/11/17 02:31:12;;;;;;;6.28;2.63;;;;;;;;;;4989282;28;20035;-68
2022/11/17 02:34:03;;;;;;;6.18;2.50;;;;;;;;;;4995170;28;20126;-67
2022/11/17 02:36:35;;;;;;;7.43;2.72;;;;;;;;;;4993944;28;20414;-66
2022/11/17 02:39:11;;;;;;;9.73;3.15;;;;;;;;;;4983462;28;20430;-66
2022/11/17 02:41:50;;;;;;;6.68;2.30;;;;;;;;;;4982310;28;20034;-66
2022/11/17 02:44:26;;;;;;;6.15;2.22;;;;;;;;;;4995972;28;20537;-66
2022/11/17 02:47:05;;;;;;;4.88;2.30;;;;;;;;;;5025698;28;20615;-65
2022/11/17 02:49:38;;;;;;;8.07;2.15;;;;;;;;;;4995164;28;20030;-65
2022/11/17 02:52:05;;;;;;;4.90;2.30;;;;;;;;;;4992910;28;20117;-66
2022/11/17 02:54:31;;;;;;;4.80;2.17;;;;;;;;;;4995165;28;20467;-65
2022/11/17 02:56:57;;;;;;;6.88;2.28;;;;;;;;;;4994361;28;20065;-66
2022/11/17 02:59:42;;;;;;;5.25;2.13;;;;;;;;;;4993935;28;20069;-66
2022/11/17 03:02:32;;;;;;;3.83;2.08;;;;;;;;;;4994254;28;20042;-66
2022/11/17 03:04:57;;;;;;;4.37;2.40;;;;;;;;;;4993710;28;20026;-65
2022/11/17 03:07:38;;;;;;;4.05;1.80;;;;;;;;;;4989740;28;20278;-65
2022/11/17 03:10:25;;;;;;;6.38;2.20;;;;;;;;;;4985156;28;20154;-66
2022/11/17 03:12:56;;;;;;;4.72;2.08;;;;;;;;;;4975182;28;20035;-64
2022/11/17 03:15:47;;;;;;;4.07;1.80;;;;;;;;;;4989062;28;20049;-64
2022/11/17 03:18:35;;;;;;;4.55;1.98;;;;;;;;;;4995357;28;20026;-65
2022/11/17 03:21:25;;;;;;;2.72;1.75;;;;;;;;;;4990384;28;20049;-64
2022/11/17 03:24:00;;;;;;;3.95;2.00;;;;;;;;;;4988418;28;20093;-66
2022/11/17 03:26:37;;;;;;;4.22;1.95;;;;;;;;;;4979592;28;20026;-66
2022/11/17 03:29:06;;;;;;;4.03;2.10;;;;;;;;;;4975676;28;20031;-66
2022/11/17 03:31:33;;;;;;;3.65;2.42;;;;;;;;;;4984370;28;20026;-66
2022/11/17 03:34:02;;;;;;;5.03;1.90;;;;;;;;;;4993825;28;20053;-66
2022/11/17 03:36:32;;;;;;;6.72;1.80;;;;;;;;;;4991812;28;20368;-66
2022/11/17 03:39:04;;;;;;;4.75;1.92;;;;;;;;;;4993280;28;20034;-66
2022/11/17 03:41:34;;;;;;;4.90;2.03;;;;;;;;;;4994270;28;20039;-66
2022/11/17 03:44:01;;;;;;;4.35;1.90;;;;;;;;;;4989959;28;20053;-66
2022/11/17 03:46:29;;;;;;;5.70;1.95;;;;;;;;;;4994419;28;20070;-66
2022/11/17 03:49:02;;;;;;;3.83;1.70;;;;;;;;;;4992947;28;20048;-67
2022/11/17 03:51:31;;;;;;;5.30;1.70;;;;;;;;;;4994503;28;20042;-66
2022/11/17 03:53:57;;;;;;;3.10;1.73;;;;;;;;;;4993145;28;20038;-65
2022/11/17 03:56:47;;;;;;;3.17;2.10;;;;;;;;;;4994489;28;20077;-65
2022/11/17 03:59:18;;;;;;;5.82;1.70;;;;;;;;;;4982220;28;20519;-64
2022/11/17 04:01:44;;;;;;;3.05;1.70;;;;;;;;;;4973421;28;20027;-65
2022/11/17 04:04:21;;;;;;;4.78;1.55;;;;;;;;;;4975398;28;20162;-65
2022/11/17 04:06:48;;;;;;;4.10;1.50;;;;;;;;;;4984402;28;20035;-64
2022/11/17 04:09:13;;;;;;;2.45;1.55;;;;;;;;;;4984450;28;20090;-64
2022/11/17 04:17:06;;;;;;;4.25;1.50;;;;;;;;;;4991753;28;20097;-64
2022/11/17 04:19:32;;;;;;;1.90;1.40;;;;;;;;;;4976071;28;20144;-65
2022/11/17 04:21:57;;;;;;;3.08;1.52;;;;;;;;;;4991990;28;20045;-64
2022/11/17 04:24:22;;;;;;;2.90;1.48;;;;;;;;;;5023724;28;20037;-65
2022/11/17 04:29:33;;;;;;;2.63;1.58;;;;;;;;;;4974374;28;20039;-65
2022/11/17 04:31:58;;;;;;;3.72;1.73;;;;;;;;;;4971609;28;20041;-64
2022/11/17 04:34:23;;;;;;;3.80;2.10;;;;;;;;;;4973936;28;20022;-64
2022/11/17 04:36:49;;;;;;;2.25;1.52;;;;;;;;;;4981309;28;20117;-65
2022/11/17 04:39:15;;;;;;;2.95;1.70;;;;;;;;;;4987455;28;20034;-64
2022/11/17 04:41:53;;;;;;;2.63;1.67;;;;;;;;;;4972410;28;20030;-65
2022/11/17 04:44:24;;;;;;;2.97;1.65;;;;;;;;;;4980059;28;20483;-65
2022/11/17 04:46:49;;;;;;;2.55;1.58;;;;;;;;;;4990218;28;20030;-64
2022/11/17 04:49:17;;;;;;;3.35;1.55;;;;;;;;;;4992337;28;20031;-64
2022/11/17 04:51:43;;;;;;;5.55;1.90;;;;;;;;;;4984543;28;20046;-65
2022/11/17 04:54:09;;;;;;;2.42;1.80;;;;;;;;;;4972209;28;20027;-65
2022/11/17 04:56:35;;;;;;;3.67;1.65;;;;;;;;;;4984605;28;20051;-65
2022/11/17 04:59:01;;;;;;;2.42;1.70;;;;;;;;;;4949401;28;1099030;-65
2022/11/17 05:01:27;;;;;;;4.28;1.67;;;;;;;;;;5024404;28;20085;-64
2022/11/17 05:04:00;;;;;;;3.33;1.60;;;;;;;;;;4990254;28;20035;-65
2022/11/17 05:06:28;;;;;;;2.67;1.60;;;;;;;;;;4993316;28;20030;-66
2022/11/17 05:08:55;;;;;;;2.45;1.70;;;;;;;;;;4984316;28;20033;-66
2022/11/17 05:14:06;;;;;;;2.53;1.70;;;;;;;;;;4984523;28;20399;-66
2022/11/17 05:19:21;;;;;;;2.40;1.50;;;;;;;;;;4973012;28;20097;-65
2022/11/17 05:21:46;;;;;;;3.45;1.40;;;;;;;;;;4979978;28;20030;-66
2022/11/17 05:24:13;;;;;;;2.63;1.65;;;;;;;;;;4992845;28;20391;-65
2022/11/17 05:26:40;;;;;;;3.85;1.67;;;;;;;;;;4984443;28;20029;-66
2022/11/17 05:29:07;;;;;;;4.40;1.85;;;;;;;;;;4988494;28;20503;-66
2022/11/17 05:31:33;;;;;;;3.55;1.90;;;;;;;;;;4984120;28;20038;-66
2022/11/17 05:33:59;;;;;;;4.10;1.83;;;;;;;;;;4983598;28;20415;-66
2022/11/17 05:36:26;;;;;;;2.63;1.90;;;;;;;;;;4989414;28;20037;-66
2022/11/17 05:38:52;;;;;;;4.70;2.00;;;;;;;;;;4990317;28;20041;-66
2022/11/17 05:41:18;;;;;;;5.35;1.80;;;;;;;;;;4992557;28;20022;-66
2022/11/17 05:43:44;;;;;;;4.30;1.98;;;;;;;;;;5015335;28;20030;-66
2022/11/17 05:46:10;;;;;;;3.92;1.95;;;;;;;;;;4991500;28;20490;-66
2022/11/17 05:48:36;;;;;;;3.65;1.83;;;;;;;;;;4984576;28;20035;-66
2022/11/17 05:51:02;;;;;;;4.63;1.70;;;;;;;;;;4981347;28;20101;-66
2022/11/17 05:53:28;;;;;;;1.60;1.50;;;;;;;;;;4979266;28;20038;-66
2022/11/17 05:56:24;;;;;;;3.38;1.80;;;;;;;;;;4989043;28;20034;-66
2022/11/17 05:58:52;;;;;;;3.90;1.88;;;;;;;;;;4974644;28;20062;-66
2022/11/17 06:01:19;;;;;;;3.40;1.52;;;;;;;;;;4993218;28;20034;-66
2022/11/17 06:03:52;;;;;;;5.78;1.90;;;;;;;;;;4983358;28;20476;-66
2022/11/17 06:06:17;;;;;;;4.43;1.75;;;;;;;;;;4972075;28;20054;-66
2022/11/17 06:08:43;;;;;;;3.88;1.90;;;;;;;;;;4975125;28;20057;-66
2022/11/17 06:11:08;;;;;;;4.35;1.90;;;;;;;;;;4991198;28;20042;-66
2022/11/17 06:13:33;;;;;;;3.92;2.00;;;;;;;;;;4990677;28;20034;-67
2022/11/17 06:16:02;;;;;;;5.93;2.10;;;;;;;;;;4981529;28;20224;-65
2022/11/17 06:18:34;;;;;;;6.00;2.42;;;;;;;;;;4992326;28;20041;-65
2022/11/17 06:20:59;;;;;;;8.43;2.17;;;;;;;;;;4985955;28;20118;-66
2022/11/17 06:23:27;;;;;;;5.75;2.17;;;;;;;;;;4992378;28;20117;-66
2022/11/17 06:25:53;;;;;;;8.02;2.50;;;;;;;;;;4987183;28;20046;-67
2022/11/17 06:28:21;;;;;;;5.70;2.53;;;;;;;;;;4989632;28;20037;-67
2022/11/17 06:30:47;;;;;;;4.85;2.47;;;;;;;;;;4989782;28;20033;-75
2022/11/17 06:33:16;;;;;;;5.30;2.20;;;;;;;;;;4984874;28;20030;-68
2022/11/17 06:35:43;;;;;;;7.40;2.50;;;;;;;;;;4981959;28;20035;-66
2022/11/17 06:38:08;;;;;;;5.15;2.30;;;;;;;;;;4983469;28;20030;-68
2022/11/17 06:40:34;;;;;;;5.63;2.50;;;;;;;;;;4989896;28;20104;-66
2022/11/17 06:43:05;;;;;;;9.05;2.67;;;;;;;;;;4989335;28;20649;-68
2022/11/17 06:45:37;;;;;;;;;;;;;;;;;;4990842;28;20030;-67
2022/11/17 06:48:03;;;;;;;5.93;2.55;;;;;;;;;;4989960;28;19906;-67
2022/11/17 06:50:29;;;;;;;4.43;2.40;;;;;;;;;;4987842;28;20039;-66
2022/11/17 06:52:58;;;;;;;5.07;2.60;;;;;;;;;;4976143;28;20038;-68
2022/11/17 06:55:24;;;;;;;7.07;2.78;;;;;;;;;;4990042;28;20039;-67
2022/11/17 06:57:50;;;;;;;7.32;3.05;;;;;;;;;;4997888;28;20075;-67
2022/11/17 07:00:16;;;;;;;6.15;2.80;;;;;;;;;;5005492;28;20026;-66
2022/11/17 07:02:41;;;;;;;5.78;2.75;;;;;;;;;;4989289;28;20155;-67
2022/11/17 07:05:07;;;;;;;6.78;2.88;;;;;;;;;;4985999;28;20030;-69
2022/11/17 07:07:33;;;;;;;7.35;2.95;;;;;;;;;;4987036;28;20034;-68
2022/11/17 07:09:58;;;;;;;7.00;2.97;;;;;;;;;;4981126;28;20041;-69
2022/11/17 07:12:23;;;;;;;6.18;2.72;;;;;;;;;;4989786;28;20038;-68
2022/11/17 07:14:49;;;;;;;7.00;2.70;;;;;;;;;;4977234;28;20042;-69
2022/11/17 07:17:14;;;;;;;6.75;2.85;;;;;;;;;;4983370;28;20038;-65
2022/11/17 07:19:39;;;;;;;6.35;2.60;;;;;;;;;;4985300;28;20030;-65
2022/11/17 07:22:05;;;;;;;6.35;2.63;;;;;;;;;;4983141;28;20387;-64
2022/11/17 07:24:30;;;;;;;3.97;2.30;;;;;;;;;;4980949;28;20090;-66
2022/11/17 07:26:56;;;;;;;5.30;2.22;;;;;;;;;;4974717;28;20026;-66
2022/11/17 07:29:21;;;;;;;6.38;2.47;;;;;;;;;;4984566;28;20041;-66
2022/11/17 07:31:46;;;;;;;6.40;2.60;;;;;;;;;;4993723;28;20042;-67
2022/11/17 07:34:12;;;;;;;6.47;2.50;;;;;;;;;;4984854;28;20045;-68
2022/11/17 07:36:37;;;;;;;5.90;2.50;;;;;;;;;;4983336;28;20034;-67
2022/11/17 07:39:04;;;;;;;4.75;2.53;;;;;;;;;;4988861;28;20610;-66
2022/11/17 07:41:30;;;;;;;5.10;2.33;;;;;;;;;;4984941;28;20038;-65
2022/11/17 07:43:57;;;;;;;5.30;2.17;;;;;;;;;;4987390;28;20046;-65
2022/11/17 07:46:22;;;;;;;3.15;1.98;;;;;;;;;;4994015;28;20044;-65
2022/11/17 07:48:48;;;;;;;3.75;1.92;;;;;;;;;;4990044;28;20027;-67
2022/11/17 07:51:14;;;;;;;6.38;2.10;;;;;;;;;;4993221;28;20109;-67
2022/11/17 07:53:40;;;;;;;3.80;2.00;;;;;;;;;;4992577;28;20042;-67
2022/11/17 07:56:08;;;;;;;7.00;2.17;;;;;;;;;;4991554;28;20266;-67
2022/11/17 07:58:34;;;;;;;5.40;2.00;;;;;;;;;;4991272;28;20047;-68
2022/11/17 08:01:20;;;;;;;3.17;1.80;;;;;;;;;;4991746;28;20050;-68
2022/11/17 08:03:45;;;;;;;4.50;1.52;;;;;;;;;;4992411;28;20050;-67
2022/11/17 08:06:11;;;;;;;2.97;1.63;;;;;;;;;;4989337;28;20052;-66
2022/11/17 08:08:36;;;;;;;3.65;1.70;;;;;;;;;;4992878;28;20032;-67
2022/11/17 08:11:09;;;;;;;3.85;1.73;;;;;;;;;;4993152;28;20041;-67
2022/11/17 08:13:35;;;;;;;2.22;1.48;;;;;;;;;;4983032;28;20038;-65
2022/11/17 08:16:01;;;;;;;2.72;1.42;;;;;;;;;;4979788;28;20054;-65
2022/11/17 08:18:27;;;;;;;3.90;1.60;;;;;;;;;;4985267;28;20105;-65
2022/11/17 08:21:04;;;;;;;3.58;1.42;;;;;;;;;;4984373;28;20038;-66
2022/11/17 08:23:30;;;;;;;3.33;1.50;;;;;;;;;;4994033;28;20037;-65
2022/11/17 08:25:56;;;;;;;3.90;1.40;;;;;;;;;;4985427;28;20443;-67
2022/11/17 08:28:21;;;;;;;4.40;1.60;;;;;;;;;;4992819;28;20486;-67
2022/11/17 08:30:47;;;;;;;4.03;1.45;;;;;;;;;;4978064;28;20039;-67
2022/11/17 08:33:12;;;;;;;4.60;1.50;;;;;;;;;;5005189;28;20043;-66
2022/11/17 08:35:38;;;;;;;6.47;1.65;;;;;;;;;;4986744;28;20066;-64
2022/11/17 08:38:04;;;;;;;5.57;1.60;;;;;;;;;;4992968;28;20030;-66
2022/11/17 08:40:29;;;;;;;4.75;2.00;;;;;;;;;;4987201;28;20038;-63
2022/11/17 08:42:55;;;;;;;7.25;1.73;;;;;;;;;;4990460;28;20088;-67
2022/11/17 08:45:20;;;;;;;6.57;1.85;;;;;;;;;;4992203;28;20026;-67
2022/11/17 08:47:46;;;;;;;3.92;1.60;;;;;;;;;;4988842;28;20494;-66
2022/11/17 08:50:11;;;;;;;2.65;1.50;;;;;;;;;;4974956;28;20499;-64
2022/11/17 08:52:37;;;;;;;2.78;1.05;;;;;;;;;;4973743;28;20049;-65
2022/11/17 08:55:04;;;;;;;4.75;1.23;;;;;;;;;;4982383;28;20034;-64
2022/11/17 08:57:30;;;;;;;2.20;1.20;;;;;;;;;;4987228;28;20049;-65
2022/11/17 08:59:56;;;;;;;3.72;1.48;;;;;;;;;;4991752;28;20050;-65
2022/11/17 09:02:21;;;;;;;5.07;1.30;;;;;;;;;;4987479;28;20388;-66
2022/11/17 09:04:47;;;;;;;4.63;1.27;;;;;;;;;;4991932;28;20034;-66
2022/11/17 09:07:12;;;;;;;4.00;1.20;;;;;;;;;;4981730;28;20037;-65
2022/11/17 09:09:38;;;;;;;2.33;1.10;;;;;;;;;;4992562;28;20472;-66
2022/11/17 09:12:03;;;;;;;2.47;1.08;;;;;;;;;;4986413;28;20026;-64
2022/11/17 09:14:30;;;;;;;2.10;1.10;;;;;;;;;;4990786;28;20122;-65
2022/11/17 09:16:55;;;;;;;2.88;1.35;;;;;;;;;;4983481;28;20038;-65
2022/11/17 09:19:21;;;;;;;2.20;1.30;;;;;;;;;;4974814;28;20058;-65
2022/11/17 09:21:46;;;;;;;3.83;1.42;;;;;;;;;;4979222;28;20026;-65
2022/11/17 09:24:11;;;;;;;2.70;1.20;;;;;;;;;;4987157;28;20399;-64
2022/11/17 09:26:40;;;;;;;2.67;1.40;;;;;;;;;;4986161;28;20034;-64
2022/11/17 09:29:08;;;;;;;4.90;1.40;;;;;;;;;;4972442;28;20229;-65
2022/11/17 09:31:35;;;;;;;4.15;1.52;;;;;;;;;;4973467;28;20117;-65
2022/11/17 09:34:00;;;;;;;5.00;1.60;;;;;;;;;;4979511;28;20092;-64
2022/11/17 09:36:26;;;;;;;3.30;1.45;;;;;;;;;;4990577;28;20054;-67
2022/11/17 09:38:51;;;;;;;5.78;1.52;;;;;;;;;;4990747;28;20062;-65
2022/11/17 09:41:23;;;;;;;4.55;1.70;;;;;;;;;;4986323;28;20124;-66
2022/11/17 09:43:53;;;;;;;5.88;1.50;;;;;;;;;;4991516;28;20545;-62
2022/11/17 09:46:30;;;;;;;4.13;1.50;;;;;;;;;;4978962;28;20026;-63
2022/11/17 09:49:10;;;;;;;3.65;1.48;;;;;;;;;;4972322;28;20027;-64
2022/11/17 09:51:37;;;;;;;3.92;1.70;;;;;;;;;;4977744;28;20027;-65
2022/11/17 09:54:13;;;;;;;4.55;2.08;;;;;;;;;;4991577;28;20140;-67
2022/11/17 09:56:39;;;;;;;4.80;1.92;;;;;;;;;;4986582;28;20053;-63
2022/11/17 09:59:11;;;;;;;7.57;2.20;;;;;;;;;;4971600;28;20630;-64
2022/11/17 10:01:37;;;;;;;3.15;1.70;;;;;;;;;;4978461;28;20418;-67
2022/11/17 10:04:10;;;;;;;4.95;2.10;;;;;;;;;;4995342;28;20038;-66
2022/11/17 10:06:36;;;;;;;6.95;1.95;;;;;;;;;;4989896;28;20034;-66
2022/11/17 10:09:17;;;;;;;5.32;1.92;;;;;;;;;;4993750;28;20104;-67
2022/11/17 10:11:43;;;;;;;4.60;2.00;;;;;;;;;;4995009;28;20062;-66
2022/11/17 10:14:11;;;;;;;4.72;1.83;;;;;;;;;;4987919;28;20054;-65
2022/11/17 10:16:39;;;;;;;5.55;1.90;;;;;;;;;;4988294;28;20034;-66
2022/11/17 10:19:19;;;;;;;6.13;1.98;;;;;;;;;;4979988;28;20106;-65
2022/11/17 10:21:49;;;;;;;4.32;1.70;;;;;;;;;;4991735;28;20034;-65
2022/11/17 10:24:33;;;;;;;5.40;1.73;;;;;;;;;;4979941;28;20034;-67
2022/11/17 10:26:59;;;;;;;6.93;1.50;;;;;;;;;;4985939;28;20104;-67
2022/11/17 10:29:24;;;;;;;4.22;1.40;;;;;;;;;;4979738;28;20448;-69
2022/11/17 10:31:50;;;;;;;6.38;1.75;;;;;;;;;;4979476;28;20455;-67
2022/11/17 10:34:33;;;;;;;3.25;1.40;;;;;;;;;;4971787;28;20037;-67
2022/11/17 10:37:29;;;;;;;3.70;1.40;;;;;;;;;;4974954;28;20121;-66
2022/11/17 10:40:15;;;;;;;2.33;1.38;;;;;;;;;;4983220;28;20035;-67
2022/11/17 10:42:52;;;;;;;4.68;1.65;;;;;;;;;;4972016;28;20476;-66
2022/11/17 10:45:18;;;;;;;3.95;1.33;;;;;;;;;;4979042;28;20030;-66
2022/11/17 10:47:43;;;;;;;4.65;1.30;;;;;;;;;;4991844;28;20463;-66
2022/11/17 10:50:26;;;;;;;4.32;1.58;;;;;;;;;;4979069;28;20022;-68
2022/11/17 10:52:53;;;;;;;3.08;1.27;;;;;;;;;;5013542;28;20494;-69
2022/11/17 10:55:30;;;;;;;4.20;1.23;;;;;;;;;;4991954;28;20027;-68
2022/11/17 10:58:01;;;;;;;3.28;1.10;;;;;;;;;;4974251;28;20093;-68
2022/11/17 11:00:26;;;;;;;4.90;1.63;;;;;;;;;;4982030;28;20026;-68
2022/11/17 11:03:14;;;;;;;2.97;1.35;;;;;;;;;;4978141;28;20038;-69
2022/11/17 11:05:54;;;;;;;4.10;1.33;;;;;;;;;;4981137;28;20041;-69
2022/11/17 11:08:43;;;;;;;1.93;1.10;;;;;;;;;;4988818;28;20542;-67
2022/11/17 11:11:26;;;;;;;3.72;1.10;;;;;;;;;;4990929;28;20351;-66
2022/11/17 11:14:03;;;;;;;2.78;1.13;;;;;;;;;;4982919;28;20468;-67
2022/11/17 11:16:29;;;;;;;2.55;1.05;;;;;;;;;;4985120;28;20373;-66
2022/11/17 11:18:56;;;;;;;2.85;1.20;;;;;;;;;;4993802;28;20038;-67
2022/11/17 11:21:53;;;;;;;2.00;0.90;;;;;;;;;;4977456;28;20030;-67
2022/11/17 11:24:35;;;;;;;4.05;1.13;;;;;;;;;;4976899;28;20068;-66
2022/11/17 11:27:28;;;;;;;4.07;1.20;;;;;;;;;;4973957;28;20046;-66
2022/11/17 11:30:07;;;;;;;2.63;1.15;;;;;;;;;;4988131;28;20106;-67
2022/11/17 11:32:50;;;;;;;1.70;1.27;;;;;;;;;;4986043;28;20077;-68
2022/11/17 11:35:31;;;;;;;2.95;1.58;;;;;;;;;;4991309;28;20497;-65
2022/11/17 11:38:33;;;;;;;3.00;1.17;;;;;;;;;;4982713;28;20136;-66
2022/11/17 11:41:12;;;;;;;2.95;1.13;;;;;;;;;;4995088;28;20052;-65
2022/11/17 11:43:56;;;;;;;2.53;1.10;;;;;;;;;;4992834;28;20046;-67
2022/11/17 11:46:44;;;;;;;2.00;1.20;;;;;;;;;;4994359;28;20033;-67
2022/11/17 11:49:42;;;;;;;4.18;1.25;;;;;;;;;;4976870;28;20039;-62
2022/11/17 11:52:17;;;;;;;2.88;1.10;;;;;;;;;;4978239;28;20053;-63
2022/11/17 11:54:56;;;;;;;2.17;1.00;;;;;;;;;;4981453;28;20034;-64
2022/11/17 11:57:33;;;;;;;3.25;1.10;;;;;;;;;;4982012;28;20049;-62
2022/11/17 12:00:02;;;;;;;2.03;1.02;;;;;;;;;;4979451;28;20058;-62
2022/11/17 12:02:33;;;;;;;3.58;1.10;;;;;;;;;;4995964;28;20125;-63
2022/11/17 12:05:20;;;;;;;2.97;1.30;;;;;;;;;;4995257;28;20819;-63
2022/11/17 12:08:28;;;;;;;2.42;1.30;;;;;;;;;;4985885;28;20435;-65
2022/11/17 12:10:59;;;;;;;4.45;1.10;;;;;;;;;;4991528;28;20439;-65
2022/11/17 12:13:25;;;;;;;3.78;1.40;;;;;;;;;;4985562;28;20045;-65
2022/11/17 12:16:18;;;;;;;2.50;1.15;;;;;;;;;;4977398;28;20528;-66
2022/11/17 12:18:43;;;;;;;1.67;1.02;;;;;;;;;;4974678;28;20042;-64
2022/11/17 12:21:12;;;;;;;3.05;1.25;;;;;;;;;;4983692;28;20472;-66
2022/11/17 12:23:59;;;;;;;2.97;1.02;;;;;;;;;;4993383;28;20546;-65
2022/11/17 12:26:33;;;;;;;3.83;1.05;;;;;;;;;;4988865;28;20419;-65
2022/11/17 12:29:43;;;;;;;4.82;0.98;;;;;;;;;;4972473;28;20384;-66
2022/11/17 12:32:09;;;;;;;1.90;1.10;;;;;;;;;;4981210;28;20054;-65
2022/11/17 12:34:36;;;;;;;2.33;1.02;;;;;;;;;;4993825;28;20499;-64
2022/11/17 12:37:24;;;;;;;1.65;1.00;;;;;;;;;;4991733;28;20060;-64
2022/11/17 12:40:03;;;;;;;4.53;1.30;;;;;;;;;;4991251;28;20038;-63
2022/11/17 12:42:31;;;;;;;1.35;0.90;;;;;;;;;;4977108;28;20034;-64
2022/11/17 12:44:58;;;;;;;2.97;1.40;;;;;;;;;;4981854;28;20034;-64
2022/11/17 12:47:38;;;;;;;4.18;1.65;;;;;;;;;;4980117;28;20037;-64
2022/11/17 12:50:25;;;;;;;1.73;1.02;;;;;;;;;;4990216;28;20095;-64
2022/11/17 12:52:59;;;;;;;3.63;1.25;;;;;;;;;;4986103;28;20412;-66
2022/11/17 12:55:27;;;;;;;3.60;1.20;;;;;;;;;;4977315;28;20558;-64
2022/11/17 12:58:00;;;;;;;3.08;1.10;;;;;;;;;;4972326;28;20031;-64
2022/11/17 13:00:28;;;;;;;2.47;1.13;;;;;;;;;;4973718;28;20038;-64
2022/11/17 13:03:09;;;;;;;3.53;0.95;;;;;;;;;;4980488;28;20034;-66
2022/11/17 13:05:35;;;;;;;3.15;1.27;;;;;;;;;;4984248;28;20030;-65
2022/11/17 13:08:30;;;;;;;2.88;1.10;;;;;;;;;;4976243;28;20069;-64
2022/11/17 13:11:03;;;;;;;1.55;0.93;;;;;;;;;;4974506;28;20488;-63
2022/11/17 13:13:29;;;;;;;2.78;0.90;;;;;;;;;;4976918;28;20045;-66
2022/11/17 13:15:57;;;;;;;2.00;1.05;;;;;;;;;;4982694;28;20113;-67
2022/11/17 13:18:52;;;;;;;2.47;1.13;;;;;;;;;;4983092;28;20031;-64
2022/11/17 13:21:29;;;;;;;1.98;1.30;;;;;;;;;;4980422;28;20571;-65
2022/11/17 13:23:56;;;;;;;2.33;1.10;;;;;;;;;;4992247;28;20117;-66
2022/11/17 13:26:34;;;;;;;4.28;1.33;;;;;;;;;;4992174;28;20035;-64
2022/11/17 13:29:12;;;;;;;5.72;1.52;;;;;;;;;;4992122;28;20109;-63
2022/11/17 13:31:38;;;;;;;4.78;1.30;;;;;;;;;;4989666;28;20034;-64
2022/11/17 13:34:23;;;;;;;2.28;1.17;;;;;;;;;;4989840;28;20034;-64
2022/11/17 13:36:52;;;;;;;2.20;1.20;;;;;;;;;;4991083;28;20101;-64
2022/11/17 13:39:18;;;;;;;5.25;1.30;;;;;;;;;;4980019;28;20031;-62
2022/11/17 13:41:43;;;;;;;3.35;1.05;;;;;;;;;;4972962;28;20432;-63
2022/11/17 13:44:16;;;;;;;3.88;1.23;;;;;;;;;;4989837;28;20072;-64
2022/11/17 13:46:42;;;;;;;3.00;1.27;;;;;;;;;;4992268;28;20498;-63
2022/11/17 13:49:33;;;;;;;4.20;1.30;;;;;;;;;;4971999;28;20022;-66
2022/11/17 13:51:58;;;;;;;;;;;;;;;;;;4972177;28;20045;-62
2022/11/17 13:54:24;;;;;;;3.28;1.02;;;;;;;;;;4974695;28;20450;-64
2022/11/17 13:56:59;;;;;;;2.17;1.02;;;;;;;;;;4976762;28;20420;-66
2022/11/17 13:59:27;;;;;;;3.72;1.38;;;;;;;;;;4971062;28;20042;-64
2022/11/17 14:02:20;;;;;;;3.60;1.42;;;;;;;;;;4977906;28;20446;-64
2022/11/17 14:05:13;;;;;;;1.95;1.10;;;;;;;;;;4988612;28;20046;-64
2022/11/17 14:07:40;;;;;;;3.35;1.35;;;;;;;;;;4976102;28;20038;-63
2022/11/17 14:10:20;;;;;;;3.65;1.40;;;;;;;;;;4974115;28;20037;-63
2022/11/17 14:12:50;;;;;;;2.97;1.30;;;;;;;;;;4980546;28;20039;-64
2022/11/17 14:15:30;;;;;;;2.85;1.20;;;;;;;;;;4978911;28;20039;-64
2022/11/17 14:18:00;;;;;;;3.55;1.20;;;;;;;;;;4971635;28;20396;-65
2022/11/17 14:20:31;;;;;;;3.80;1.45;;;;;;;;;;4982780;28;20121;-65
2022/11/17 14:23:09;;;;;;;;;;;;;;;;;;4988877;28;20117;-63
2022/11/17 14:25:38;;;;;;;3.83;1.67;;;;;;;;;;4986101;28;19971;-63
2022/11/17 14:28:03;;;;;;;5.30;1.60;;;;;;;;;;4974020;28;20034;-63
2022/11/17 14:30:29;;;;;;;4.38;1.70;;;;;;;;;;4977809;28;20043;-64
2022/11/17 14:32:54;;;;;;;4.50;1.80;;;;;;;;;;4989070;28;20050;-64
2022/11/17 14:35:19;;;;;;;4.10;1.52;;;;;;;;;;4992769;28;20038;-64
2022/11/17 14:37:45;;;;;;;6.85;1.80;;;;;;;;;;5001579;28;20503;-64
2022/11/17 14:40:15;;;;;;;4.03;1.80;;;;;;;;;;4989952;28;20030;-65
2022/11/17 14:42:41;;;;;;;4.65;1.60;;;;;;;;;;4976811;28;20443;-62
2022/11/17 14:45:11;;;;;;;3.33;1.70;;;;;;;;;;4990876;28;20030;-63
2022/11/17 14:47:36;;;;;;;4.40;1.20;;;;;;;;;;4986360;28;20153;-64
2022/11/17 14:50:02;;;;;;;3.88;1.50;;;;;;;;;;4975059;28;20482;-63
2022/11/17 14:52:27;;;;;;;2.08;1.30;;;;;;;;;;4975749;28;20077;-63
2022/11/17 14:54:52;;;;;;;2.75;1.45;;;;;;;;;;4976494;28;20138;-66
2022/11/17 14:57:18;;;;;;;3.30;1.50;;;;;;;;;;4977149;28;20095;-65
2022/11/17 14:59:43;;;;;;;3.88;1.58;;;;;;;;;;4994001;28;20050;-64
2022/11/17 15:02:10;;;;;;;2.80;1.85;;;;;;;;;;4993137;28;20042;-64
2022/11/17 15:04:39;;;;;;;4.97;1.80;;;;;;;;;;4985819;28;20062;-64
2022/11/17 15:07:04;;;;;;;5.57;1.58;;;;;;;;;;4980572;28;20042;-64
2022/11/17 15:09:29;;;;;;;4.47;1.60;;;;;;;;;;4990539;28;20034;-63
2022/11/17 15:11:55;;;;;;;4.45;1.65;;;;;;;;;;4993045;28;20073;-62
2022/11/17 15:14:20;;;;;;;4.32;1.58;;;;;;;;;;4990415;28;20041;-62
2022/11/17 15:16:45;;;;;;;4.35;1.70;;;;;;;;;;4983344;28;20086;-62
2022/11/17 15:19:11;;;;;;;3.50;1.52;;;;;;;;;;4989182;28;20387;-64
2022/11/17 15:21:37;;;;;;;2.97;1.60;;;;;;;;;;4976199;28;20105;-64
2022/11/17 15:24:03;;;;;;;4.90;2.00;;;;;;;;;;4976921;28;20125;-65
2022/11/17 15:26:29;;;;;;;4.72;1.70;;;;;;;;;;5021193;28;20486;-63